Time;durP1;ratioP1;P1;durP2;ratioP2;P2;SDS_P1;SDS_P2;PMS_P1;PMS_P2;Temp;Humidity;BMP_temperature;BMP_pressure;BME280_temperature;BME280_humidity;BME280_pressure;Samples;Min_cycle;Max_cycle;Signal;HPM_P1;HPM_P2
2023/01/21 00:01:35;;;;;;;59.75;29.85;;;0.10;99.90;;;;;;5061341;28;20230;-88
2023/01/21 00:04:01;;;;;;;54.30;29.17;;;0.10;99.90;;;;;;5064795;28;20053;-88
2023/01/21 00:06:27;;;;;;;51.28;30.15;;;0.10;99.90;;;;;;5062797;28;20040;-89
2023/01/21 00:08:54;;;;;;;49.53;27.10;;;0.00;99.90;;;;;;5060926;28;20047;-89
2023/01/21 00:11:20;;;;;;;55.40;28.42;;;0.00;99.90;;;;;;5057803;28;20072;-90
2023/01/21 00:13:46;;;;;;;48.58;27.63;;;0.00;99.90;;;;;;5045454;28;20071;-90
2023/01/21 00:16:12;;;;;;;54.22;29.08;;;-0.10;99.90;;;;;;5044166;28;20491;-89
2023/01/21 00:18:38;;;;;;;54.95;28.48;;;0.10;99.90;;;;;;5077930;28;20036;-90
2023/01/21 00:21:04;;;;;;;51.60;27.02;;;0.00;99.90;;;;;;5061461;28;20124;-90
2023/01/21 00:23:30;;;;;;;55.53;27.52;;;-0.30;99.90;;;;;;5044620;28;20047;-89
2023/01/21 00:26:00;;;;;;;53.90;26.95;;;-0.20;99.90;;;;;;5058900;28;20130;-90
2023/01/21 00:28:30;;;;;;;55.17;26.52;;;-0.30;99.90;;;;;;5076197;28;20036;-88
2023/01/21 00:31:00;;;;;;;55.50;26.40;;;-0.50;99.90;;;;;;5045341;28;20032;-90
2023/01/21 00:33:27;;;;;;;50.65;26.38;;;-0.50;99.90;;;;;;5076240;28;20120;-89
2023/01/21 00:36:12;;;;;;;48.70;26.05;;;-0.50;99.90;;;;;;5045782;28;20047;-89
2023/01/21 00:38:38;;;;;;;56.00;27.25;;;-0.40;99.90;;;;;;5064202;28;20040;-89
2023/01/21 00:41:07;;;;;;;51.50;26.00;;;-0.50;99.90;;;;;;5042899;28;20098;-89
2023/01/21 00:43:33;;;;;;;53.63;26.05;;;-0.50;99.90;;;;;;5043593;28;20114;-90
2023/01/21 00:45:59;;;;;;;54.40;26.55;;;-0.50;99.90;;;;;;5074551;28;20032;-90
2023/01/21 00:48:27;;;;;;;51.22;26.13;;;-0.60;99.90;;;;;;5044396;28;20043;-90
2023/01/21 00:50:54;;;;;;;52.45;26.63;;;-0.80;99.90;;;;;;5044978;28;20524;-89
2023/01/21 00:53:22;;;;;;;53.50;25.88;;;-0.90;99.90;;;;;;5044080;28;20047;-90
2023/01/21 00:55:47;;;;;;;51.00;26.00;;;-0.70;99.90;;;;;;5058575;28;20043;-89
2023/01/21 00:58:14;;;;;;;52.95;26.33;;;-0.90;99.90;;;;;;5042892;28;20044;-89
2023/01/21 01:00:40;;;;;;;55.10;25.63;;;-0.80;99.90;;;;;;5046573;28;20055;-89
2023/01/21 01:03:05;;;;;;;51.40;25.25;;;-0.80;99.90;;;;;;5065527;28;20337;-89
2023/01/21 01:05:31;;;;;;;54.08;26.60;;;-0.90;99.90;;;;;;5067167;28;20212;-88
2023/01/21 01:07:57;;;;;;;53.75;26.25;;;-0.80;99.90;;;;;;5048196;28;20044;-89
2023/01/21 01:10:23;;;;;;;53.30;26.95;;;-1.10;99.90;;;;;;5048331;28;20054;-89
2023/01/21 01:12:49;;;;;;;52.75;25.60;;;-1.10;99.90;;;;;;5065836;28;20489;-90
2023/01/21 01:15:14;;;;;;;55.35;26.73;;;-1.00;99.90;;;;;;5064591;28;20047;-89
2023/01/21 01:17:40;;;;;;;56.58;27.95;;;-1.10;99.90;;;;;;5064508;28;20683;-89
2023/01/21 01:20:09;;;;;;;64.40;29.20;;;-1.10;99.90;;;;;;5063432;28;20040;-89
2023/01/21 01:22:35;;;;;;;55.85;26.45;;;-1.20;99.90;;;;;;5049262;28;20055;-88
2023/01/21 01:25:00;;;;;;;59.35;27.77;;;-1.00;99.90;;;;;;5064703;28;20036;-89
2023/01/21 01:27:28;;;;;;;55.25;26.70;;;-1.20;99.90;;;;;;5045218;28;20039;-89
2023/01/21 01:29:53;;;;;;;56.15;26.98;;;-1.00;99.90;;;;;;5049962;28;20140;-89
2023/01/21 01:32:19;;;;;;;56.33;26.25;;;-1.30;99.90;;;;;;5049299;28;20165;-87
2023/01/21 01:34:45;;;;;;;56.35;27.55;;;-1.30;99.90;;;;;;5047877;28;20452;-89
2023/01/21 01:37:13;;;;;;;63.28;29.48;;;-1.30;99.90;;;;;;5047779;28;20419;-89
2023/01/21 01:39:39;;;;;;;59.22;28.42;;;-1.30;99.90;;;;;;5064272;28;20400;-89
2023/01/21 01:42:08;;;;;;;57.28;28.55;;;-1.40;99.90;;;;;;5047224;28;20727;-90
2023/01/21 01:44:54;;;;;;;60.97;28.13;;;-1.20;99.90;;;;;;5044374;28;20518;-90
2023/01/21 01:47:44;;;;;;;61.03;28.92;;;-1.20;99.90;;;;;;5095931;28;20123;-90
2023/01/21 01:50:17;;;;;;;73.95;31.90;;;-1.30;99.90;;;;;;5061617;28;20050;-90
2023/01/21 01:52:43;;;;;;;68.25;30.70;;;-1.30;99.90;;;;;;5046344;28;20044;-90
2023/01/21 01:55:10;;;;;;;67.20;31.65;;;-1.40;99.90;;;;;;5064216;28;20079;-89
2023/01/21 01:57:40;;;;;;;63.22;30.05;;;-1.20;99.90;;;;;;5049008;28;20028;-91
2023/01/21 02:00:11;;;;;;;62.67;30.83;;;-1.50;99.90;;;;;;5045546;28;20114;-90
2023/01/21 02:03:43;;;;;;;62.35;30.95;;;-1.20;99.90;;;;;;5079427;28;20144;-90
2023/01/21 03:04:48;;;;;;;88.07;41.03;;;-1.60;99.90;;;;;;5080157;28;20479;-89
2023/01/21 03:07:34;;;;;;;86.93;40.53;;;-1.60;99.90;;;;;;5066227;28;20040;-92
2023/01/21 03:10:16;;;;;;;88.63;40.60;;;-1.70;99.90;;;;;;5046383;28;20690;-90
2023/01/21 03:13:00;;;;;;;84.97;41.33;;;-1.80;99.90;;;;;;5062445;28;20059;-90
2023/01/21 03:18:30;;;;;;;87.82;41.10;;;-1.70;99.90;;;;;;5065264;28;20056;-90
2023/01/21 03:21:00;;;;;;;83.88;40.72;;;-1.80;99.90;;;;;;5057741;28;20043;-90
2023/01/21 03:23:31;;;;;;;93.97;42.95;;;-1.90;99.90;;;;;;5065913;28;20044;-90
2023/01/21 03:25:59;;;;;;;104.15;43.80;;;-1.80;99.90;;;;;;5039539;28;20036;-89
2023/01/21 03:28:28;;;;;;;88.55;41.95;;;-1.70;99.90;;;;;;5047028;28;20406;-90
2023/01/21 03:31:04;;;;;;;80.70;35.58;;;-1.70;99.90;;;;;;5049838;28;20506;-90
2023/01/21 03:33:34;;;;;;;78.65;33.22;;;-1.80;99.90;;;;;;5057321;28;20094;-90
2023/01/21 03:36:03;;;;;;;71.70;32.25;;;-1.80;99.90;;;;;;5082861;28;20188;-90
2023/01/21 03:42:12;;;;;;;83.50;32.55;;;-1.50;99.90;;;;;;5082409;28;20038;-91
2023/01/21 03:44:41;;;;;;;86.15;34.03;;;-1.20;99.90;;;;;;5048697;28;20150;-89
2023/01/21 03:47:42;;;;;;;84.30;34.58;;;-1.00;99.90;;;;;;5067424;28;20071;-90
2023/01/21 03:50:26;;;;;;;92.70;34.58;;;-1.20;99.90;;;;;;5062647;28;20055;-89
2023/01/21 03:52:52;;;;;;;81.45;33.10;;;-1.20;99.90;;;;;;5068556;28;20089;-91
2023/01/21 03:55:20;;;;;;;74.88;31.17;;;-0.90;99.90;;;;;;5048177;28;20032;-90
2023/01/21 03:57:46;;;;;;;83.00;34.42;;;-1.00;99.90;;;;;;5065696;28;20439;-90
2023/01/21 04:00:12;;;;;;;86.03;32.55;;;-1.00;99.90;;;;;;5064371;28;20093;-89
2023/01/21 04:02:38;;;;;;;79.65;32.05;;;-0.80;99.90;;;;;;5045506;28;20393;-90
2023/01/21 04:05:05;;;;;;;92.40;32.97;;;-0.90;99.90;;;;;;5034032;28;20075;-90
2023/01/21 04:07:30;;;;;;;92.72;35.05;;;-0.60;99.90;;;;;;5031385;28;20076;-90
2023/01/21 04:09:56;;;;;;;93.00;34.00;;;-0.60;99.90;;;;;;5045973;28;20072;-90
2023/01/21 04:12:24;;;;;;;87.38;31.67;;;-0.50;99.90;;;;;;5027786;28;20029;-89
2023/01/21 04:14:50;;;;;;;84.43;33.22;;;-0.70;99.90;;;;;;5062482;28;20036;-89
2023/01/21 04:17:16;;;;;;;92.93;34.50;;;-0.70;99.90;;;;;;5046230;28;20093;-90
2023/01/21 04:19:41;;;;;;;95.80;32.47;;;-0.80;99.90;;;;;;5030905;28;20040;-90
2023/01/21 04:22:11;;;;;;;89.63;32.55;;;-0.60;99.90;;;;;;5029780;28;20368;-89
2023/01/21 04:24:36;;;;;;;83.55;31.48;;;-0.70;99.90;;;;;;5030284;28;20048;-90
2023/01/21 04:27:05;;;;;;;78.40;29.23;;;-0.40;99.90;;;;;;5027164;28;20041;-90
2023/01/21 04:29:31;;;;;;;85.68;31.33;;;-0.70;99.90;;;;;;5030186;28;20248;-90
2023/01/21 04:31:56;;;;;;;89.63;32.20;;;-0.60;99.90;;;;;;5043662;28;20294;-90
2023/01/21 04:34:25;;;;;;;87.15;32.40;;;-0.50;99.90;;;;;;5029783;28;20395;-89
2023/01/21 04:36:59;;;;;;;95.65;32.38;;;-0.60;99.90;;;;;;5028831;28;20912;-90
2023/01/21 04:39:25;;;;;;;85.30;31.73;;;-0.60;99.90;;;;;;5029083;28;20033;-91
2023/01/21 04:41:50;;;;;;;77.57;31.05;;;-0.40;99.90;;;;;;5028624;28;20116;-89
2023/01/21 04:44:16;;;;;;;73.20;29.23;;;-0.50;99.90;;;;;;5030249;28;20545;-90
2023/01/21 05:13:48;;;;;;;80.15;31.42;;;-0.40;99.90;;;;;;4945673;28;20164;-90
2023/01/21 05:16:14;;;;;;;72.25;30.52;;;-0.50;99.90;;;;;;4927811;29;20047;-90
2023/01/21 05:18:39;;;;;;;73.10;30.70;;;-0.40;99.90;;;;;;4947050;28;20108;-89
2023/01/21 05:21:06;;;;;;;92.57;35.42;;;-0.50;99.90;;;;;;5016870;28;20072;-88
2023/01/21 05:23:32;;;;;;;73.72;30.60;;;-0.20;99.90;;;;;;5030252;28;20048;-90
2023/01/21 05:26:00;;;;;;;75.57;30.27;;;-0.40;99.90;;;;;;5046047;28;20052;-90
2023/01/21 05:28:26;;;;;;;75.15;32.92;;;-0.30;99.90;;;;;;5061011;28;20051;-90
2023/01/21 05:30:52;;;;;;;83.85;31.83;;;-0.30;99.90;;;;;;5029185;28;20491;-89
2023/01/21 05:33:22;;;;;;;84.80;32.08;;;-0.20;99.90;;;;;;5032832;28;20067;-90
2023/01/21 05:35:48;;;;;;;84.60;31.35;;;0.00;99.90;;;;;;5030292;28;20398;-90
2023/01/21 05:38:16;;;;;;;80.05;31.50;;;-0.30;99.90;;;;;;5046753;28;20059;-90
2023/01/21 05:40:42;;;;;;;76.00;29.27;;;-0.20;99.90;;;;;;5044016;28;20143;-90
2023/01/21 05:43:11;;;;;;;79.35;31.52;;;-0.10;99.90;;;;;;5031939;28;20040;-91
2023/01/21 05:45:41;;;;;;;72.78;29.95;;;-0.20;99.90;;;;;;5046874;28;20117;-89
2023/01/21 05:48:06;;;;;;;78.13;30.38;;;-0.20;99.90;;;;;;5050182;28;20072;-90
2023/01/21 05:50:32;;;;;;;73.93;31.15;;;-0.20;99.90;;;;;;5030733;28;20076;-89
2023/01/21 05:52:58;;;;;;;85.30;32.58;;;-0.20;99.90;;;;;;5028396;28;20285;-89
2023/01/21 05:55:23;;;;;;;80.85;31.40;;;0.00;99.90;;;;;;5031057;28;20048;-89
2023/01/21 05:57:50;;;;;;;84.38;33.03;;;0.00;99.90;;;;;;5047694;28;20101;-90
2023/01/21 06:00:16;;;;;;;77.05;31.88;;;-0.20;99.90;;;;;;5030662;28;20039;-90
2023/01/21 06:06:23;;;;;;;78.72;30.20;;;-0.10;99.90;;;;;;5084026;28;20264;-90
2023/01/21 06:08:59;;;;;;;68.32;28.48;;;-0.20;99.90;;;;;;5048527;28;20069;-90
2023/01/21 06:11:43;;;;;;;72.38;29.90;;;0.00;99.90;;;;;;5063160;28;20132;-90
2023/01/21 06:14:37;;;;;;;86.30;31.55;;;0.00;99.90;;;;;;5051713;28;20045;-90
2023/01/21 06:17:40;;;;;;;81.22;31.38;;;-0.10;99.90;;;;;;5041231;28;20129;-89
2023/01/21 06:20:16;;;;;;;72.03;29.95;;;-0.30;99.90;;;;;;5069497;28;20074;-89
2023/01/21 06:22:41;;;;;;;75.15;30.63;;;-0.20;99.90;;;;;;5069105;28;20447;-90
2023/01/21 06:25:39;;;;;;;77.63;30.45;;;-0.30;99.90;;;;;;5067395;28;20044;-90
2023/01/21 06:28:06;;;;;;;75.63;29.95;;;-0.10;99.90;;;;;;5041423;28;20050;-89
2023/01/21 06:30:34;;;;;;;75.78;30.77;;;-0.30;99.90;;;;;;5031527;28;20037;-90
2023/01/21 06:33:00;;;;;;;75.43;31.02;;;-0.10;99.90;;;;;;5032843;28;20105;-90
2023/01/21 06:35:29;;;;;;;74.70;31.15;;;-0.10;99.90;;;;;;5035170;28;20258;-89
2023/01/21 06:37:55;;;;;;;79.50;31.27;;;-0.30;99.90;;;;;;5037041;28;20281;-90
2023/01/21 06:40:20;;;;;;;73.10;29.52;;;-0.30;99.90;;;;;;5023259;28;20295;-89
2023/01/21 06:42:49;;;;;;;79.88;32.55;;;-0.30;99.90;;;;;;5027983;28;20105;-90
2023/01/21 06:45:15;;;;;;;76.60;32.05;;;-0.20;99.90;;;;;;5063249;28;20275;-90
2023/01/21 06:47:44;;;;;;;84.55;33.33;;;-0.40;99.90;;;;;;5030111;28;20132;-90
2023/01/21 06:50:12;;;;;;;68.13;30.58;;;-0.20;99.90;;;;;;5065677;28;20045;-90
2023/01/21 06:52:41;;;;;;;75.63;31.50;;;-0.10;99.90;;;;;;5063390;28;20053;-91
2023/01/21 06:55:07;;;;;;;67.25;29.88;;;-0.20;99.90;;;;;;5064198;28;20323;-90
2023/01/21 06:57:33;;;;;;;72.95;30.98;;;-0.40;99.90;;;;;;5047328;28;20058;-89
2023/01/21 06:59:58;;;;;;;72.80;31.63;;;-0.10;99.90;;;;;;5032344;28;20464;-89
2023/01/21 07:02:25;;;;;;;74.85;31.83;;;-0.20;99.90;;;;;;5062985;28;20037;-89
2023/01/21 07:04:50;;;;;;;68.30;31.08;;;-0.20;99.90;;;;;;5032563;28;20044;-89
2023/01/21 07:07:16;;;;;;;64.63;29.40;;;-0.10;99.90;;;;;;5046207;28;20838;-90
2023/01/21 07:09:45;;;;;;;79.50;33.45;;;-0.10;99.90;;;;;;5047010;28;20131;-90
2023/01/21 07:12:12;;;;;;;83.22;33.42;;;-0.40;99.90;;;;;;5032797;28;20463;-90
2023/01/21 07:14:37;;;;;;;78.45;32.83;;;-0.30;99.90;;;;;;5079954;28;20135;-90
2023/01/21 07:17:03;;;;;;;78.07;33.00;;;-0.20;99.90;;;;;;5083852;28;20562;-90
2023/01/21 07:19:29;;;;;;;73.22;31.65;;;-0.20;99.90;;;;;;5050830;28;20047;-90
2023/01/21 07:21:55;;;;;;;78.60;33.47;;;-0.50;99.90;;;;;;5068944;28;20388;-92
2023/01/21 07:24:20;;;;;;;78.80;33.50;;;-0.40;99.90;;;;;;5068638;28;20138;-91
2023/01/21 07:26:49;;;;;;;82.95;33.75;;;-0.40;99.90;;;;;;5085606;28;20036;-90
2023/01/21 07:29:15;;;;;;;87.63;35.88;;;-0.40;99.90;;;;;;5064056;28;20051;-90
2023/01/21 07:31:41;;;;;;;85.75;33.67;;;-0.40;99.90;;;;;;5068708;28;20046;-90
2023/01/21 07:34:06;;;;;;;94.20;35.85;;;-0.50;99.90;;;;;;5050820;28;20350;-89
2023/01/21 07:36:32;;;;;;;78.50;33.25;;;-0.80;99.90;;;;;;5049356;28;20039;-90
2023/01/21 07:38:58;;;;;;;80.18;33.42;;;-0.60;99.90;;;;;;5047850;28;20124;-91
2023/01/21 07:41:24;;;;;;;78.55;32.53;;;-0.80;99.90;;;;;;5051806;28;20067;-89
2023/01/21 07:43:53;;;;;;;91.10;33.80;;;-0.60;99.90;;;;;;5047104;28;20067;-90
2023/01/21 07:46:20;;;;;;;89.03;35.47;;;-0.80;99.90;;;;;;5057612;28;20191;-91
2023/01/21 07:48:50;;;;;;;87.22;35.47;;;-0.90;99.90;;;;;;5051394;28;20028;-91
2023/01/21 07:51:17;;;;;;;81.65;35.33;;;-0.90;99.90;;;;;;5066024;28;20191;-90
2023/01/21 07:53:43;;;;;;;89.55;36.33;;;-0.70;99.90;;;;;;5065452;28;20704;-89
2023/01/21 07:56:09;;;;;;;92.75;36.03;;;-0.80;99.90;;;;;;5039172;28;20033;-90
2023/01/21 07:58:35;;;;;;;94.53;37.13;;;-0.80;99.90;;;;;;5066853;28;20486;-90
2023/01/21 08:01:08;;;;;;;95.28;35.50;;;-0.60;99.90;;;;;;5067318;28;20127;-91
2023/01/21 08:03:38;;;;;;;84.35;35.97;;;-0.90;99.90;;;;;;5068424;28;20093;-91
2023/01/21 08:06:06;;;;;;;94.00;37.67;;;-0.70;99.90;;;;;;5067966;28;20394;-90
2023/01/21 08:08:33;;;;;;;96.10;36.88;;;-0.90;99.90;;;;;;5067037;28;20451;-90
2023/01/21 08:11:08;;;;;;;83.07;35.15;;;-0.70;99.90;;;;;;5050756;28;20039;-90
2023/01/21 08:13:34;;;;;;;92.85;37.03;;;-0.60;99.90;;;;;;5066026;28;20359;-90
2023/01/21 08:15:59;;;;;;;108.43;38.45;;;-0.80;99.90;;;;;;5064478;28;20267;-90
2023/01/21 08:18:25;;;;;;;101.88;39.38;;;-0.80;99.90;;;;;;5086149;28;20043;-91
2023/01/21 08:20:58;;;;;;;96.97;38.92;;;-0.70;99.90;;;;;;5050951;28;20144;-90
2023/01/21 08:23:25;;;;;;;97.60;37.85;;;-0.90;99.90;;;;;;5049089;28;20074;-91
2023/01/21 08:25:51;;;;;;;99.85;38.92;;;-0.90;99.90;;;;;;5061205;28;20554;-90
2023/01/21 08:28:17;;;;;;;101.78;39.25;;;-0.70;99.90;;;;;;5065581;28;20111;-90
2023/01/21 08:30:43;;;;;;;94.03;37.28;;;-0.90;99.90;;;;;;5048392;28;20036;-90
2023/01/21 08:33:09;;;;;;;93.07;36.90;;;-0.70;99.90;;;;;;5050320;28;20055;-91
2023/01/21 08:35:38;;;;;;;96.35;37.22;;;-0.60;99.90;;;;;;5064964;28;20036;-91
2023/01/21 08:38:04;;;;;;;89.15;36.25;;;-0.60;99.90;;;;;;5058967;28;20036;-90
2023/01/21 08:40:29;;;;;;;88.03;37.40;;;-0.60;99.90;;;;;;5046175;28;20040;-89
2023/01/21 08:43:01;;;;;;;97.40;38.50;;;-0.60;99.90;;;;;;5043273;28;20032;-90
2023/01/21 08:45:29;;;;;;;89.32;38.17;;;-0.50;99.90;;;;;;5048716;28;20036;-89
2023/01/21 08:47:55;;;;;;;92.45;37.50;;;-0.70;99.90;;;;;;5042444;28;20053;-89
2023/01/21 08:50:21;;;;;;;95.80;37.53;;;-0.60;99.90;;;;;;5050370;28;20051;-89
2023/01/21 08:52:54;;;;;;;85.95;36.92;;;-0.50;99.90;;;;;;5081236;28;20051;-89
2023/01/21 08:55:23;;;;;;;95.47;37.90;;;-0.20;99.90;;;;;;5050084;28;20200;-90
2023/01/21 08:57:50;;;;;;;90.45;37.08;;;-0.40;99.90;;;;;;5056398;28;20552;-90
2023/01/21 09:00:17;;;;;;;105.90;38.15;;;-0.10;99.90;;;;;;5051023;28;20032;-90
2023/01/21 09:02:43;;;;;;;97.10;37.70;;;-0.20;99.90;;;;;;5048116;28;20080;-90
2023/01/21 09:05:09;;;;;;;91.13;38.10;;;-0.20;99.90;;;;;;5049468;28;20068;-89
2023/01/21 09:07:35;;;;;;;90.90;36.17;;;-0.20;99.90;;;;;;5048065;28;20111;-89
2023/01/21 09:10:01;;;;;;;83.45;34.70;;;-0.10;99.90;;;;;;5048488;28;20401;-90
2023/01/21 09:12:29;;;;;;;92.55;37.55;;;-0.20;99.90;;;;;;5049467;28;20044;-89
2023/01/21 09:14:55;;;;;;;93.97;37.78;;;0.00;99.90;;;;;;5048037;28;20898;-90
2023/01/21 09:17:21;;;;;;;93.07;39.05;;;-0.20;99.90;;;;;;5047994;28;20046;-89
2023/01/21 09:19:47;;;;;;;91.75;37.78;;;0.00;99.90;;;;;;5049881;28;20085;-90
2023/01/21 09:22:13;;;;;;;83.90;36.80;;;-0.20;99.90;;;;;;5064575;28;20040;-88
2023/01/21 09:24:41;;;;;;;88.53;36.30;;;0.00;99.90;;;;;;5047450;28;20036;-88
2023/01/21 09:27:08;;;;;;;76.13;35.67;;;0.20;99.90;;;;;;5079915;28;20120;-88
2023/01/21 09:29:34;;;;;;;89.22;37.88;;;0.20;99.90;;;;;;5047454;28;20047;-88
2023/01/21 09:32:04;;;;;;;92.60;38.63;;;0.10;99.90;;;;;;5046081;28;20111;-87
2023/01/21 09:34:29;;;;;;;86.95;37.22;;;0.10;99.90;;;;;;5048262;28;20495;-87
2023/01/21 09:36:55;;;;;;;95.22;37.58;;;0.00;99.90;;;;;;5052819;27;20327;-88
2023/01/21 09:39:21;;;;;;;76.50;34.88;;;0.30;99.90;;;;;;5062847;28;20047;-88
2023/01/21 09:41:53;;;;;;;83.95;37.33;;;0.30;99.90;;;;;;5063635;28;20056;-88
2023/01/21 09:44:35;;;;;;;77.82;36.05;;;0.20;99.90;;;;;;5060920;28;20578;-88
2023/01/21 09:47:19;;;;;;;79.38;35.83;;;0.40;99.90;;;;;;5047638;28;20044;-87
2023/01/21 09:49:52;;;;;;;78.03;34.15;;;0.50;99.90;;;;;;5063772;28;20169;-88
2023/01/21 09:52:43;;;;;;;68.18;32.63;;;0.40;99.90;;;;;;5045570;28;20052;-88
2023/01/21 09:55:27;;;;;;;76.13;35.00;;;0.50;99.90;;;;;;5061906;28;20078;-88
2023/01/21 09:58:19;;;;;;;76.73;35.47;;;0.70;99.90;;;;;;5044442;28;20139;-89
2023/01/21 10:00:56;;;;;;;75.85;32.50;;;0.60;99.90;;;;;;5060838;28;20036;-89
2023/01/21 10:03:38;;;;;;;73.90;33.80;;;0.80;99.90;;;;;;5062772;28;20403;-89
2023/01/21 10:06:12;;;;;;;77.53;34.15;;;1.00;99.90;;;;;;5049508;28;20042;-89
2023/01/21 10:08:47;;;;;;;70.20;32.10;;;0.90;99.90;;;;;;5096312;28;20449;-89
2023/01/21 10:11:30;;;;;;;;;;;1.10;99.90;;;;;;5047849;28;20122;-89
2023/01/21 10:14:29;;;;;;;69.45;31.67;;;1.00;99.90;;;;;;5046425;28;20080;-89
2023/01/21 10:17:20;;;;;;;70.30;32.60;;;1.20;99.90;;;;;;5061993;28;20146;-87
2023/01/21 10:20:03;;;;;;;63.50;30.00;;;1.30;99.90;;;;;;5092843;28;20455;-88
2023/01/21 10:22:29;;;;;;;65.22;30.63;;;1.30;99.90;;;;;;5046896;28;20044;-89
2023/01/21 10:25:05;;;;;;;64.25;30.75;;;1.50;99.90;;;;;;5062324;28;20198;-89
2023/01/21 10:27:36;;;;;;;56.08;30.15;;;1.60;99.90;;;;;;5044480;28;20142;-88
2023/01/21 10:30:19;;;;;;;69.63;31.60;;;1.50;99.90;;;;;;5046196;28;20303;-89
2023/01/21 10:32:48;;;;;;;58.70;28.27;;;1.40;99.90;;;;;;5078921;28;20051;-89
2023/01/21 10:35:27;;;;;;;61.47;29.08;;;1.80;99.90;;;;;;5048125;28;20098;-89
2023/01/21 10:38:08;;;;;;;60.20;29.33;;;1.70;99.90;;;;;;5068655;28;20040;-90
2023/01/21 10:41:06;;;;;;;57.72;28.55;;;1.80;99.90;;;;;;5066261;28;20041;-90
2023/01/21 10:43:59;;;;;;;52.55;27.23;;;1.80;99.90;;;;;;5050750;28;20509;-91
2023/01/21 10:46:29;;;;;;;55.33;26.85;;;1.90;99.90;;;;;;5064805;28;20142;-90
2023/01/21 10:49:19;;;;;;;60.83;26.95;;;1.90;99.90;;;;;;5048161;28;20067;-91
2023/01/21 10:51:53;;;;;;;53.13;27.25;;;2.10;99.90;;;;;;5049130;28;20104;-91
2023/01/21 10:54:35;;;;;;;53.65;26.83;;;2.20;99.90;;;;;;5062909;28;20036;-91
2023/01/21 10:57:25;;;;;;;53.25;26.50;;;2.10;99.90;;;;;;5047768;28;20043;-92
2023/01/21 10:59:52;;;;;;;51.47;26.35;;;2.20;99.90;;;;;;5062392;28;20048;-92
2023/01/21 11:02:29;;;;;;;53.55;27.55;;;2.10;99.90;;;;;;5048839;28;20048;-92
2023/01/21 11:05:02;;;;;;;48.53;27.52;;;2.20;99.90;;;;;;5049800;28;20225;-91
2023/01/21 11:07:36;;;;;;;52.15;26.67;;;2.40;99.90;;;;;;5048610;28;20075;-92
2023/01/21 11:10:03;;;;;;;;;;;2.40;99.90;;;;;;5079468;28;20606;-92
2023/01/21 11:12:31;;;;;;;47.40;26.80;;;2.50;99.90;;;;;;5079021;28;19924;-92
2023/01/21 11:14:59;;;;;;;46.40;25.58;;;2.40;99.90;;;;;;5063786;28;20145;-91
2023/01/21 11:17:35;;;;;;;51.70;27.27;;;2.50;99.90;;;;;;5062416;28;20063;-91
2023/01/21 11:20:04;;;;;;;47.17;26.83;;;2.60;99.90;;;;;;5065044;28;20475;-92
2023/01/21 11:22:31;;;;;;;46.92;26.77;;;2.50;99.90;;;;;;5048887;28;20038;-92
2023/01/21 11:24:58;;;;;;;50.55;26.55;;;2.70;99.90;;;;;;5061445;28;20695;-91
2023/01/21 11:27:37;;;;;;;44.15;25.13;;;2.80;99.90;;;;;;5061881;28;20036;-91
2023/01/21 11:30:07;;;;;;;39.95;24.33;;;2.80;99.90;;;;;;5065947;28;20325;-92
2023/01/21 11:32:33;;;;;;;42.85;24.35;;;2.80;99.90;;;;;;5045677;28;20561;-91
2023/01/21 11:35:01;;;;;;;43.40;24.92;;;2.80;99.90;;;;;;5042492;28;20043;-86
2023/01/21 11:37:31;;;;;;;46.20;24.48;;;2.80;99.90;;;;;;5041656;28;20133;-86
2023/01/21 11:40:05;;;;;;;42.70;24.70;;;2.80;99.90;;;;;;5047042;28;20467;-85
2023/01/21 11:42:52;;;;;;;40.10;22.97;;;2.80;99.90;;;;;;5054712;28;20578;-86
2023/01/21 11:45:32;;;;;;;38.72;23.65;;;2.80;99.90;;;;;;5059745;28;20790;-86
2023/01/21 11:47:59;;;;;;;36.42;22.95;;;2.80;99.90;;;;;;5056708;28;20090;-86
2023/01/21 11:50:34;;;;;;;40.50;22.75;;;2.80;99.90;;;;;;5041154;28;20241;-86
2023/01/21 11:53:05;;;;;;;40.63;23.17;;;2.90;99.90;;;;;;5043904;28;20036;-86
2023/01/21 11:55:35;;;;;;;39.10;23.77;;;2.90;99.90;;;;;;5060503;28;20059;-86
2023/01/21 11:58:01;;;;;;;37.70;22.85;;;3.10;99.90;;;;;;5056282;28;20121;-86
2023/01/21 12:00:34;;;;;;;34.25;20.33;;;3.00;99.90;;;;;;5043944;28;20115;-85
2023/01/21 12:03:03;;;;;;;31.10;17.52;;;3.10;99.90;;;;;;5056828;28;20180;-86
2023/01/21 12:05:35;;;;;;;27.48;16.98;;;3.10;99.90;;;;;;5057710;28;20112;-86
2023/01/21 12:08:03;;;;;;;22.73;14.98;;;3.20;99.90;;;;;;5057664;28;20656;-87
2023/01/21 12:10:33;;;;;;;23.10;14.38;;;3.20;99.90;;;;;;5042586;28;20348;-87
2023/01/21 12:13:33;;;;;;;22.55;13.75;;;3.30;99.90;;;;;;5041049;28;20064;-84
2023/01/21 12:16:19;;;;;;;24.08;14.38;;;3.30;99.90;;;;;;5060592;28;20044;-85
2023/01/21 12:19:20;;;;;;;23.40;14.65;;;3.30;99.90;;;;;;5060862;28;20115;-85
2023/01/21 12:22:16;;;;;;;21.95;14.35;;;3.40;99.90;;;;;;5058786;28;20043;-85
2023/01/21 12:25:01;;;;;;;25.17;14.00;;;3.40;99.90;;;;;;5066171;28;20040;-85
2023/01/21 12:27:32;;;;;;;25.52;14.27;;;3.50;99.90;;;;;;5044618;28;20067;-85
2023/01/21 12:30:28;;;;;;;19.85;12.55;;;3.50;99.90;;;;;;5041084;28;20047;-85
2023/01/21 12:32:55;;;;;;;18.70;12.40;;;3.50;99.90;;;;;;5057829;28;20048;-86
2023/01/21 12:35:37;;;;;;;17.63;11.88;;;3.60;99.90;;;;;;5044740;28;20492;-85
2023/01/21 12:38:09;;;;;;;16.52;11.65;;;3.60;99.90;;;;;;5060698;28;20296;-85
2023/01/21 12:40:44;;;;;;;19.25;12.20;;;3.60;99.90;;;;;;5044579;28;20227;-85
2023/01/21 12:43:45;;;;;;;17.75;11.57;;;3.60;99.90;;;;;;5058642;28;20340;-85
2023/01/21 12:46:17;;;;;;;16.73;11.48;;;3.70;99.90;;;;;;5006613;28;20628;-85
2023/01/21 12:49:23;;;;;;;15.93;11.15;;;3.80;99.90;;;;;;5049483;28;20770;-85
2023/01/21 12:51:58;;;;;;;16.77;11.40;;;3.70;99.90;;;;;;5094693;28;20097;-85
2023/01/21 12:54:28;;;;;;;;;;;3.70;99.90;;;;;;5062866;28;20036;-85
2023/01/21 12:57:19;;;;;;;12.70;9.20;;;3.80;99.90;;;;;;5072867;28;19969;-85
2023/01/21 13:00:01;;;;;;;13.77;9.80;;;3.80;99.90;;;;;;5038247;28;20036;-85
2023/01/21 13:02:48;;;;;;;13.80;9.57;;;4.00;99.90;;;;;;5065016;28;20071;-85
2023/01/21 13:05:41;;;;;;;10.23;7.75;;;4.20;99.90;;;;;;5061578;28;20489;-85
2023/01/21 13:08:44;;;;;;;7.47;4.90;;;4.30;99.90;;;;;;5090842;27;20109;-85
2023/01/21 13:11:18;;;;;;;6.07;4.13;;;4.10;99.90;;;;;;5063963;28;20108;-85
2023/01/21 13:13:55;;;;;;;7.80;6.20;;;4.00;99.90;;;;;;5041355;28;20493;-84
2023/01/21 13:16:25;;;;;;;14.32;9.45;;;4.00;99.90;;;;;;5091442;27;20138;-85
2023/01/21 13:18:53;;;;;;;14.38;10.40;;;3.70;99.90;;;;;;5066904;28;20842;-85
2023/01/21 13:21:39;;;;;;;14.02;9.63;;;3.60;99.90;;;;;;5063774;28;20114;-85
2023/01/21 13:24:52;;;;;;;14.05;10.38;;;3.50;99.90;;;;;;5045107;28;20131;-85
2023/01/21 13:27:44;;;;;;;15.65;10.63;;;3.50;99.90;;;;;;4949300;28;20038;-84
2023/01/21 13:30:23;;;;;;;15.07;10.20;;;3.40;99.90;;;;;;4945083;28;20136;-84
2023/01/21 13:32:53;;;;;;;14.73;10.23;;;3.40;99.90;;;;;;5019548;28;20063;-85
2023/01/21 13:35:45;;;;;;;13.13;9.73;;;3.40;99.90;;;;;;5058843;28;20041;-84
2023/01/21 13:38:34;;;;;;;16.33;9.70;;;3.30;99.90;;;;;;5094033;28;20036;-85
2023/01/21 13:40:59;;;;;;;15.73;9.95;;;3.40;99.90;;;;;;5069038;28;20036;-85
2023/01/21 13:44:02;;;;;;;14.68;9.32;;;3.40;99.90;;;;;;5060582;28;20047;-84
2023/01/21 13:46:45;;;;;;;12.43;9.10;;;3.50;99.90;;;;;;5080954;28;20100;-84
2023/01/21 13:49:14;;;;;;;13.40;9.40;;;3.50;99.90;;;;;;5061745;28;20241;-85
2023/01/21 13:52:07;;;;;;;12.30;8.98;;;3.50;99.90;;;;;;5062204;28;20089;-85
2023/01/21 13:54:44;;;;;;;12.82;9.50;;;3.50;99.90;;;;;;5062649;28;21006;-85
2023/01/21 13:57:48;;;;;;;13.23;9.23;;;3.50;99.90;;;;;;5074805;28;20105;-85
2023/01/21 14:00:18;;;;;;;13.55;9.13;;;3.70;99.90;;;;;;5035111;28;20577;-85
2023/01/21 14:02:50;;;;;;;15.57;9.15;;;3.90;99.90;;;;;;5053334;28;20455;-85
2023/01/21 14:05:31;;;;;;;11.90;8.27;;;3.90;99.90;;;;;;5091893;28;20126;-85
2023/01/21 14:08:10;;;;;;;10.45;7.53;;;3.70;99.90;;;;;;5088213;28;20036;-85
2023/01/21 14:10:39;;;;;;;6.28;5.30;;;3.80;99.90;;;;;;5063137;28;20131;-85
2023/01/21 14:13:23;;;;;;;6.32;4.38;;;3.60;99.90;;;;;;5049446;28;20459;-85
2023/01/21 14:16:04;;;;;;;6.28;5.30;;;3.60;99.90;;;;;;5059276;28;20126;-84
2023/01/21 14:18:56;;;;;;;9.13;6.13;;;3.50;99.90;;;;;;5088852;27;20632;-85
2023/01/21 14:21:43;;;;;;;10.02;6.43;;;3.60;99.90;;;;;;5088136;28;20450;-85
2023/01/21 14:24:34;;;;;;;7.32;5.97;;;3.90;99.90;;;;;;5075809;28;20047;-85
2023/01/21 14:27:05;;;;;;;6.90;5.45;;;4.00;99.90;;;;;;5040635;28;20036;-85
2023/01/21 14:29:35;;;;;;;8.02;5.30;;;4.10;99.90;;;;;;5061699;28;20346;-84
2023/01/21 14:32:21;;;;;;;8.68;5.88;;;4.30;99.90;;;;;;5078635;28;20713;-84
2023/01/21 14:35:17;;;;;;;6.55;5.82;;;4.30;99.90;;;;;;5044107;28;20115;-85
2023/01/21 14:37:51;;;;;;;9.20;6.82;;;4.40;99.90;;;;;;5074086;28;20120;-84